createdAt,value
2023-02-22T00:00:52.948Z,1.40
2023-02-22T00:03:51.358Z,1.27
2023-02-22T00:06:45.316Z,1.70
2023-02-22T00:09:38.757Z,1.58
2023-02-22T00:12:31.419Z,1.50
2023-02-22T00:15:28.229Z,1.48
2023-02-22T00:18:21.780Z,1.40
2023-02-22T00:21:18.147Z,1.70
2023-02-22T00:24:23.126Z,1.45
2023-02-22T00:27:16.957Z,1.58
2023-02-22T00:30:14.933Z,1.20
2023-02-22T00:33:07.534Z,1.48
2023-02-22T00:36:00.914Z,1.38
2023-02-22T00:38:55.825Z,1.40
2023-02-22T00:41:49.720Z,1.30
2023-02-22T00:44:42.917Z,1.40
2023-02-22T00:47:36.050Z,1.50
2023-02-22T00:50:31.200Z,1.40
2023-02-22T00:53:26.040Z,1.35
2023-02-22T00:56:21.625Z,1.30
2023-02-22T00:59:14.824Z,1.38
2023-02-22T01:02:09.413Z,1.52
2023-02-22T01:05:02.816Z,1.20
2023-02-22T01:07:56.841Z,1.30
2023-02-22T01:10:50.427Z,1.50
2023-02-22T01:13:46.091Z,1.60
2023-02-22T01:16:39.566Z,1.50
2023-02-22T01:19:32.911Z,1.63
2023-02-22T01:22:25.722Z,1.60
2023-02-22T01:25:21.668Z,1.60
2023-02-22T01:28:15.117Z,1.33
2023-02-22T01:31:10.016Z,1.30
2023-02-22T01:34:03.434Z,1.70
2023-02-22T01:36:57.194Z,1.70
2023-02-22T01:39:50.499Z,1.40
2023-02-22T01:42:44.664Z,1.20
2023-02-22T01:45:52.885Z,1.38
2023-02-22T01:48:50.504Z,1.40
2023-02-22T01:51:46.700Z,1.60
2023-02-22T01:54:44.861Z,1.23
2023-02-22T01:57:39.638Z,1.75
2023-02-22T02:00:33.140Z,1.40
2023-02-22T02:03:31.584Z,1.27
2023-02-22T02:06:27.777Z,1.40
2023-02-22T02:09:26.602Z,1.70
2023-02-22T02:12:23.164Z,1.30
2023-02-22T02:15:20.159Z,2.28
2023-02-22T02:18:15.046Z,2.10
2023-02-22T02:21:49.718Z,1.80
2023-02-22T02:25:30.813Z,2.85
2023-02-22T02:28:48.574Z,3.20
2023-02-22T02:32:14.677Z,3.85
2023-02-22T02:35:13.960Z,3.75
2023-02-22T02:38:12.996Z,4.18
2023-02-22T02:41:10.656Z,4.18
2023-02-22T02:44:06.705Z,4.13
2023-02-22T02:47:07.989Z,4.97
2023-02-22T02:50:05.421Z,4.15
2023-02-22T02:53:02.760Z,4.70
2023-02-22T02:55:57.169Z,5.18
2023-02-22T02:58:52.997Z,5.30
2023-02-22T03:01:57.620Z,4.43
2023-02-22T03:05:07.244Z,4.47
2023-02-22T03:08:07.660Z,4.80
2023-02-22T03:11:14.840Z,4.53
2023-02-22T03:14:17.743Z,4.25
2023-02-22T03:17:19.995Z,4.68
2023-02-22T03:20:21.550Z,4.22
2023-02-22T03:23:24.674Z,5.10
2023-02-22T03:26:24.228Z,5.50
2023-02-22T03:29:21.288Z,4.72
2023-02-22T03:32:18.295Z,5.43
2023-02-22T03:35:18.208Z,5.03
2023-02-22T03:38:16.197Z,4.65
2023-02-22T03:41:12.672Z,4.70
2023-02-22T03:44:09.286Z,4.75
2023-02-22T03:47:08.040Z,5.35
2023-02-22T03:50:07.681Z,5.00
2023-02-22T03:53:02.791Z,4.60
2023-02-22T03:55:57.929Z,5.28
2023-02-22T03:58:51.997Z,4.35
2023-02-22T04:01:44.729Z,4.72
2023-02-22T04:04:38.009Z,4.70
2023-02-22T04:07:30.944Z,4.50
2023-02-22T04:10:26.241Z,4.63
2023-02-22T04:13:20.053Z,4.07
2023-02-22T04:16:12.888Z,4.40
2023-02-22T04:19:06.268Z,4.10
2023-02-22T04:21:59.739Z,3.75
2023-02-22T04:24:53.919Z,4.05
2023-02-22T04:27:48.084Z,3.60
2023-02-22T04:30:41.176Z,3.90
2023-02-22T04:33:34.096Z,3.70
2023-02-22T04:36:27.065Z,3.78
2023-02-22T04:39:19.743Z,3.53
2023-02-22T04:42:12.995Z,3.58
2023-02-22T04:45:10.159Z,3.70
2023-02-22T04:48:02.940Z,3.83
2023-02-22T04:50:55.803Z,3.15
2023-02-22T04:53:48.737Z,3.50
2023-02-22T04:56:41.913Z,3.95
2023-02-22T04:59:34.725Z,4.00
2023-02-22T05:02:29.706Z,3.78
2023-02-22T05:05:23.342Z,3.72
2023-02-22T05:08:16.969Z,3.72
2023-02-22T05:11:10.316Z,3.85
2023-02-22T05:14:04.021Z,4.13
2023-02-22T05:16:57.637Z,4.28
2023-02-22T05:19:52.326Z,4.03
2023-02-22T05:22:45.870Z,4.28
2023-02-22T05:25:39.614Z,4.35
2023-02-22T05:28:33.162Z,4.95
2023-02-22T05:31:26.186Z,5.10
2023-02-22T05:34:18.985Z,5.03
2023-02-22T05:37:13.052Z,5.20
2023-02-22T05:40:07.546Z,4.60
2023-02-22T05:43:02.128Z,4.28
2023-02-22T05:45:55.580Z,4.85
2023-02-22T05:48:48.686Z,4.40
2023-02-22T05:51:42.412Z,4.55
2023-02-22T05:54:37.194Z,4.88
2023-02-22T05:57:30.142Z,5.22
2023-02-22T06:00:25.605Z,4.70
2023-02-22T06:03:18.972Z,4.63
2023-02-22T06:06:11.642Z,4.50
2023-02-22T06:09:05.010Z,3.90
2023-02-22T06:11:59.231Z,4.60
2023-02-22T06:14:52.107Z,4.47
2023-02-22T06:17:45.420Z,4.38
2023-02-22T06:20:38.981Z,4.35
2023-02-22T06:23:31.705Z,4.75
2023-02-22T06:26:25.009Z,5.07
2023-02-22T06:29:19.068Z,4.65
2023-02-22T06:32:11.775Z,4.57
2023-02-22T06:35:05.600Z,4.20
2023-02-22T06:37:58.825Z,4.63
2023-02-22T06:40:53.039Z,4.60
2023-02-22T06:43:48.738Z,4.60
2023-02-22T06:46:49.078Z,5.20
2023-02-22T06:49:41.860Z,4.50
2023-02-22T06:52:35.037Z,5.07
2023-02-22T06:55:29.908Z,4.65
2023-02-22T06:58:23.181Z,5.07
2023-02-22T07:01:17.099Z,4.63
2023-02-22T07:04:11.653Z,4.55
2023-02-22T07:07:04.753Z,4.32
2023-02-22T07:09:58.051Z,4.55
2023-02-22T07:12:52.440Z,4.28
2023-02-22T07:15:46.226Z,4.40
2023-02-22T07:18:39.606Z,3.90
2023-02-22T07:21:34.537Z,4.60
2023-02-22T07:24:28.941Z,4.57
2023-02-22T07:27:22.545Z,4.55
2023-02-22T07:30:19.171Z,4.35
2023-02-22T07:33:13.994Z,4.38
2023-02-22T07:36:08.122Z,4.30
2023-02-22T07:39:02.417Z,4.50
2023-02-22T07:41:55.849Z,4.85
2023-02-22T07:44:49.305Z,4.43
2023-02-22T07:47:42.058Z,4.15
2023-02-22T07:50:36.471Z,4.43
2023-02-22T07:53:32.430Z,4.55
2023-02-22T07:56:27.301Z,4.50
2023-02-22T07:59:21.749Z,4.93
2023-02-22T08:02:16.808Z,4.70
2023-02-22T08:05:11.525Z,4.38
2023-02-22T08:08:06.710Z,4.03
2023-02-22T08:11:00.366Z,4.22
2023-02-22T08:13:54.563Z,4.10
2023-02-22T08:16:47.940Z,4.20
2023-02-22T08:19:41.542Z,4.45
2023-02-22T08:22:34.942Z,4.13
2023-02-22T08:25:30.037Z,4.30
2023-02-22T08:28:24.727Z,4.45
2023-02-22T08:31:19.943Z,4.60
2023-02-22T08:34:13.254Z,4.53
2023-02-22T08:37:06.163Z,4.22
2023-02-22T08:39:59.783Z,3.95
2023-02-22T08:42:53.284Z,4.60
2023-02-22T08:45:46.184Z,4.05
2023-02-22T08:48:40.549Z,4.50
2023-02-22T08:51:36.788Z,4.45
2023-02-22T08:54:30.094Z,4.30
2023-02-22T08:57:23.542Z,4.50
2023-02-22T09:00:18.750Z,4.68
2023-02-22T09:03:14.574Z,4.60
2023-02-22T09:06:09.631Z,4.28
2023-02-22T09:09:03.787Z,4.30
2023-02-22T09:11:57.179Z,4.28
2023-02-22T09:14:50.454Z,4.70
2023-02-22T09:17:44.065Z,4.22
2023-02-22T09:20:37.353Z,3.25
2023-02-22T09:23:31.154Z,3.55
2023-02-22T09:26:24.451Z,3.00
2023-02-22T09:29:22.703Z,3.20
2023-02-22T09:32:18.050Z,3.20
2023-02-22T09:35:13.003Z,2.88
2023-02-22T09:38:07.270Z,2.83
2023-02-22T09:41:12.207Z,2.75
2023-02-22T09:44:17.578Z,2.35
2023-02-22T09:47:18.196Z,2.25
2023-02-22T09:50:16.408Z,2.47
2023-02-22T09:53:29.301Z,1.90
2023-02-22T09:56:25.863Z,1.90
2023-02-22T09:59:26.896Z,1.80
2023-02-22T10:02:28.249Z,2.58
2023-02-22T10:05:27.593Z,2.42
2023-02-22T10:08:21.776Z,1.90
2023-02-22T10:11:25.661Z,1.85
2023-02-22T10:14:44.244Z,2.05
2023-02-22T10:17:45.722Z,1.90
2023-02-22T10:20:48.306Z,1.83
2023-02-22T10:23:53.484Z,1.70
2023-02-22T10:26:47.028Z,1.60
2023-02-22T10:29:44.757Z,1.80
2023-02-22T10:32:45.481Z,1.95
2023-02-22T10:35:41.338Z,1.98
2023-02-22T10:38:35.541Z,1.80
2023-02-22T10:41:31.868Z,2.33
2023-02-22T10:44:25.433Z,2.47
2023-02-22T10:47:22.087Z,2.17
2023-02-22T10:50:16.624Z,2.50
2023-02-22T10:53:11.534Z,1.75
2023-02-22T10:56:09.171Z,1.98
2023-02-22T10:59:07.395Z,2.17
2023-02-22T11:02:00.394Z,2.33
2023-02-22T11:04:56.501Z,2.10
2023-02-22T11:07:49.385Z,2.20
2023-02-22T11:10:43.364Z,2.45
2023-02-22T11:13:39.977Z,2.17
2023-02-22T11:16:38.167Z,1.98
2023-02-22T11:19:33.710Z,2.55
2023-02-22T11:22:31.986Z,2.20
2023-02-22T11:25:31.526Z,2.20
2023-02-22T11:28:32.834Z,1.65
2023-02-22T11:31:29.084Z,1.95
2023-02-22T11:34:35.110Z,2.00
2023-02-22T11:37:36.371Z,1.77
2023-02-22T11:40:29.582Z,1.88
2023-02-22T11:43:23.041Z,1.85
2023-02-22T11:46:20.484Z,1.92
2023-02-22T11:49:17.267Z,1.58
2023-02-22T11:52:19.876Z,1.60
2023-02-22T11:55:41.197Z,1.83
2023-02-22T11:58:45.593Z,1.90
2023-02-22T12:01:46.412Z,2.00
2023-02-22T12:04:57.667Z,1.80
2023-02-22T12:08:13.796Z,1.88
2023-02-22T12:11:19.101Z,1.63
2023-02-22T12:14:22.335Z,1.60
2023-02-22T12:17:25.705Z,1.23
2023-02-22T12:20:25.666Z,1.73
2023-02-22T12:23:23.758Z,1.27
2023-02-22T12:26:26.178Z,1.80
2023-02-22T12:29:27.789Z,1.75
2023-02-22T12:32:29.095Z,1.77
2023-02-22T12:35:25.889Z,1.70
2023-02-22T12:38:25.410Z,1.02
2023-02-22T12:41:35.106Z,1.35
2023-02-22T12:44:34.526Z,1.50
2023-02-22T12:47:35.319Z,1.48
2023-02-22T12:50:34.389Z,1.50
2023-02-22T12:53:32.153Z,1.48
2023-02-22T12:56:31.700Z,1.63
2023-02-22T12:59:30.676Z,1.73
2023-02-22T13:02:29.802Z,1.70
2023-02-22T13:05:23.878Z,1.27
2023-02-22T13:08:25.247Z,1.40
2023-02-22T13:11:26.616Z,1.38
2023-02-22T13:14:43.404Z,1.83
2023-02-22T13:17:43.935Z,1.30
2023-02-22T13:20:41.877Z,1.50
2023-02-22T13:23:44.623Z,1.20
2023-02-22T13:26:44.720Z,1.27
2023-02-22T13:29:41.712Z,1.48
2023-02-22T13:32:51.384Z,1.30
2023-02-22T13:36:01.316Z,1.60
2023-02-22T13:39:28.349Z,1.25
2023-02-22T13:42:56.013Z,1.30
2023-02-22T13:46:27.836Z,1.40
2023-02-22T13:49:38.687Z,1.30
2023-02-22T13:52:33.553Z,1.10
2023-02-22T13:55:32.141Z,1.80
2023-02-22T13:58:25.979Z,1.10
2023-02-22T14:01:45.600Z,1.30
2023-02-22T14:04:41.877Z,1.42
2023-02-22T14:07:59.425Z,1.42
2023-02-22T14:10:55.099Z,1.30
2023-02-22T14:14:11.392Z,1.00
2023-02-22T14:17:23.833Z,1.27
2023-02-22T14:20:35.183Z,1.45
2023-02-22T14:23:35.218Z,1.20
2023-02-22T14:26:30.282Z,1.48
2023-02-22T14:29:23.706Z,1.17
2023-02-22T14:32:17.817Z,1.40
2023-02-22T14:35:27.626Z,1.10
2023-02-22T14:38:25.108Z,1.40
2023-02-22T14:41:18.685Z,1.27
2023-02-22T14:44:12.870Z,1.20
2023-02-22T14:47:08.956Z,1.08
2023-02-22T14:50:07.593Z,1.20
2023-02-22T14:53:04.378Z,1.33
2023-02-22T14:56:02.438Z,1.23
2023-02-22T14:59:08.265Z,1.30
2023-02-22T15:02:11.870Z,1.30
2023-02-22T15:05:05.345Z,1.42
2023-02-22T15:08:00.428Z,1.10
2023-02-22T15:10:54.347Z,1.10
2023-02-22T15:13:53.275Z,1.10
2023-02-22T15:16:50.872Z,0.98
2023-02-22T15:19:44.606Z,1.02
2023-02-22T15:22:38.496Z,1.00
2023-02-22T15:25:32.200Z,1.02
2023-02-22T15:28:30.882Z,1.00
2023-02-22T15:31:30.448Z,0.90
2023-02-22T15:34:28.324Z,1.20
2023-02-22T15:37:25.253Z,1.17
2023-02-22T15:40:20.859Z,1.30
2023-02-22T15:43:20.168Z,1.10
2023-02-22T15:46:14.151Z,1.15
2023-02-22T15:49:24.221Z,1.30
2023-02-22T15:52:20.649Z,1.42
2023-02-22T15:55:13.207Z,1.17
2023-02-22T15:58:11.063Z,1.20
2023-02-22T16:01:07.040Z,1.02
2023-02-22T16:04:01.250Z,1.35
2023-02-22T16:07:06.958Z,1.40
2023-02-22T16:10:07.973Z,1.00
2023-02-22T16:13:07.719Z,1.30
2023-02-22T16:16:02.690Z,1.00
2023-02-22T16:19:31.290Z,1.13
2023-02-22T16:22:28.916Z,1.25
2023-02-22T16:25:32.660Z,1.40
2023-02-22T16:28:30.700Z,1.17
2023-02-22T16:31:26.078Z,1.10
2023-02-22T16:34:19.534Z,0.98
2023-02-22T16:37:23.749Z,1.02
2023-02-22T16:40:23.441Z,1.15
2023-02-22T16:43:19.895Z,1.10
2023-02-22T16:46:14.641Z,0.95
2023-02-22T16:49:07.966Z,1.30
2023-02-22T16:52:02.746Z,1.13
2023-02-22T16:54:55.716Z,0.80
2023-02-22T16:57:51.484Z,1.10
2023-02-22T17:00:44.782Z,1.20
2023-02-22T17:03:37.579Z,1.23
2023-02-22T17:06:30.412Z,1.20
2023-02-22T17:09:23.586Z,1.00
2023-02-22T17:12:16.717Z,1.25
2023-02-22T17:15:19.465Z,1.00
2023-02-22T17:18:16.189Z,1.20
2023-02-22T17:21:12.282Z,1.33
2023-02-22T17:24:06.156Z,0.98
2023-02-22T17:26:59.848Z,1.13
2023-02-22T17:29:53.354Z,1.08
2023-02-22T17:32:49.704Z,1.23
2023-02-22T17:35:42.684Z,1.42
2023-02-22T17:38:35.422Z,1.25
2023-02-22T17:41:28.324Z,1.05
2023-02-22T17:44:21.567Z,1.33
2023-02-22T17:47:14.356Z,1.20
2023-02-22T17:50:10.439Z,1.00
2023-02-22T17:53:03.988Z,1.30
2023-02-22T17:55:58.049Z,1.25
2023-02-22T17:58:54.832Z,1.00
2023-02-22T18:01:48.909Z,1.17
2023-02-22T18:04:42.419Z,1.30
2023-02-22T18:07:37.394Z,1.10
2023-02-22T18:10:30.891Z,1.15
2023-02-22T18:13:25.780Z,1.55
2023-02-22T18:16:18.683Z,1.05
2023-02-22T18:19:11.686Z,0.95
2023-02-22T18:22:08.228Z,1.00
2023-02-22T18:25:02.690Z,1.10
2023-02-22T18:27:56.304Z,1.00
2023-02-22T18:30:52.445Z,1.20
2023-02-22T18:33:49.982Z,1.15
2023-02-22T18:36:43.693Z,1.40
2023-02-22T18:39:42.634Z,1.20
2023-02-22T18:42:38.511Z,1.13
2023-02-22T18:45:31.636Z,1.20
2023-02-22T18:48:24.354Z,1.00
2023-02-22T18:51:18.423Z,1.10
2023-02-22T18:54:13.450Z,1.35
2023-02-22T18:57:07.087Z,1.30
2023-02-22T19:00:02.146Z,0.70
2023-02-22T19:02:57.638Z,1.25
2023-02-22T19:05:52.147Z,1.10
2023-02-22T19:08:47.032Z,1.10
2023-02-22T19:11:44.683Z,1.30
2023-02-22T19:14:37.726Z,1.30
2023-02-22T19:17:32.665Z,1.10
2023-02-22T19:20:28.374Z,1.25
2023-02-22T19:23:21.427Z,1.20
2023-02-22T19:26:18.481Z,1.17
2023-02-22T19:29:11.450Z,1.10
2023-02-22T19:32:05.336Z,1.00
2023-02-22T19:35:02.912Z,1.10
2023-02-22T19:37:56.719Z,1.00
2023-02-22T19:40:49.474Z,1.20
2023-02-22T19:43:42.704Z,1.10
2023-02-22T19:46:37.123Z,1.00
2023-02-22T19:49:30.639Z,0.85
2023-02-22T19:52:25.235Z,1.10
2023-02-22T19:55:18.691Z,1.10
2023-02-22T19:58:14.572Z,1.13
2023-02-22T20:01:15.049Z,1.23
2023-02-22T20:04:10.310Z,1.20
2023-02-22T20:07:03.926Z,1.25
2023-02-22T20:09:57.991Z,1.48
2023-02-22T20:12:51.644Z,1.30
2023-02-22T20:15:45.048Z,1.52
2023-02-22T20:18:38.692Z,1.40
2023-02-22T20:21:33.192Z,1.40
2023-02-22T20:24:27.639Z,1.42
2023-02-22T20:27:21.849Z,1.60
2023-02-22T20:30:18.188Z,1.42
2023-02-22T20:33:13.470Z,1.67
2023-02-22T20:36:07.568Z,1.40
2023-02-22T20:39:01.378Z,1.50
2023-02-22T20:41:55.577Z,1.63
2023-02-22T20:44:51.947Z,1.75
2023-02-22T20:47:44.765Z,1.63
2023-02-22T20:50:37.876Z,1.70
2023-02-22T20:53:30.413Z,1.70
2023-02-22T20:56:25.448Z,1.60
2023-02-22T20:59:20.136Z,1.40
2023-02-22T21:02:15.222Z,1.63
2023-02-22T21:05:08.438Z,1.70
2023-02-22T21:08:03.272Z,1.70
2023-02-22T21:10:56.626Z,2.33
2023-02-22T21:13:50.860Z,2.42
2023-02-22T21:16:46.486Z,2.63
2023-02-22T21:19:41.154Z,5.75
2023-02-22T21:22:34.780Z,8.40
2023-02-22T21:25:30.643Z,8.55
2023-02-22T21:28:27.669Z,8.68
2023-02-22T21:31:25.203Z,9.40
2023-02-22T21:34:18.670Z,9.13
2023-02-22T21:37:18.074Z,9.32
2023-02-22T21:40:19.077Z,9.68
2023-02-22T21:43:13.002Z,9.68
2023-02-22T21:46:06.992Z,9.60
2023-02-22T21:49:00.282Z,8.57
2023-02-22T21:51:53.833Z,8.27
2023-02-22T21:54:48.336Z,9.68
2023-02-22T21:57:42.368Z,8.02
2023-02-22T22:00:38.972Z,8.27
2023-02-22T22:03:31.816Z,8.05
2023-02-22T22:06:24.704Z,9.30
2023-02-22T22:09:21.894Z,8.13
2023-02-22T22:12:15.822Z,9.45
2023-02-22T22:15:10.074Z,10.18
2023-02-22T22:18:06.398Z,10.10
2023-02-22T22:20:59.946Z,10.57
2023-02-22T22:23:56.114Z,10.43
2023-02-22T22:26:50.994Z,10.50
2023-02-22T22:29:45.439Z,10.85
2023-02-22T22:32:40.173Z,11.40
2023-02-22T22:35:34.464Z,10.55
2023-02-22T22:38:29.073Z,10.77
2023-02-22T22:41:22.465Z,10.32
2023-02-22T22:44:16.389Z,10.70
2023-02-22T22:47:13.133Z,10.20
2023-02-22T22:50:08.391Z,11.35
2023-02-22T22:53:01.891Z,11.25
2023-02-22T22:55:54.911Z,11.90
2023-02-22T22:58:50.687Z,11.07
2023-02-22T23:01:45.186Z,10.98
2023-02-22T23:04:40.267Z,11.13
2023-02-22T23:07:34.400Z,10.98
2023-02-22T23:10:28.052Z,10.98
2023-02-22T23:13:21.066Z,10.50
2023-02-22T23:16:13.881Z,10.57
2023-02-22T23:19:08.555Z,11.02
2023-02-22T23:22:05.490Z,10.75
2023-02-22T23:25:00.840Z,11.80
2023-02-22T23:27:55.898Z,11.60
2023-02-22T23:30:48.925Z,11.30
2023-02-22T23:33:42.264Z,10.68
2023-02-22T23:36:36.084Z,10.35
2023-02-22T23:39:30.529Z,11.40
2023-02-22T23:42:23.711Z,11.20
2023-02-22T23:45:22.604Z,10.90
2023-02-22T23:48:20.284Z,10.95
2023-02-22T23:51:15.843Z,11.13
2023-02-22T23:54:10.438Z,11.82
2023-02-22T23:57:06.314Z,10.50
